createdAt,value
2023-03-13T00:01:54.667Z,-4.00
2023-03-13T00:04:21.617Z,-4.00
2023-03-13T00:06:48.596Z,-4.00
2023-03-13T00:09:17.186Z,-4.10
2023-03-13T00:11:45.833Z,-4.10
2023-03-13T00:14:12.745Z,-4.20
2023-03-13T00:16:39.912Z,-4.20
2023-03-13T00:19:08.768Z,-4.30
2023-03-13T00:21:37.674Z,-4.20
2023-03-13T00:24:05.224Z,-4.30
2023-03-13T00:26:32.143Z,-4.20
2023-03-13T00:28:59.387Z,-4.30
2023-03-13T00:31:32.018Z,-4.30
2023-03-13T00:34:01.065Z,-4.30
2023-03-13T00:36:30.569Z,-4.30
2023-03-13T00:38:57.708Z,-4.30
2023-03-13T00:41:27.335Z,-4.40
2023-03-13T00:43:54.952Z,-4.50
2023-03-13T00:46:24.710Z,-4.50
2023-03-13T00:48:51.733Z,-4.60
2023-03-13T00:51:20.454Z,-4.50
2023-03-13T00:53:47.691Z,-4.60
2023-03-13T00:56:16.476Z,-4.60
2023-03-13T00:58:45.678Z,-4.60
2023-03-13T01:01:22.810Z,-4.60
2023-03-13T01:03:53.644Z,-4.60
2023-03-13T01:06:23.448Z,-4.70
2023-03-13T01:08:50.550Z,-4.70
2023-03-13T01:11:38.284Z,-4.70
2023-03-13T01:14:08.612Z,-4.70
2023-03-13T01:16:36.954Z,-4.70
2023-03-13T01:19:07.080Z,-4.70
2023-03-13T01:21:34.312Z,-4.70
2023-03-13T01:24:01.976Z,-4.70
2023-03-13T01:26:28.997Z,-4.70
2023-03-13T01:28:57.130Z,-4.70
2023-03-13T01:31:30.236Z,-4.70
2023-03-13T01:34:02.880Z,-4.70
2023-03-13T01:36:30.357Z,-4.70
2023-03-13T01:38:59.805Z,-4.70
2023-03-13T01:41:28.478Z,-4.80
2023-03-13T01:43:55.657Z,-4.70
2023-03-13T01:46:27.929Z,-4.80
2023-03-13T01:49:22.189Z,-4.70
2023-03-13T01:51:55.627Z,-4.90
2023-03-13T01:54:32.654Z,-4.80
2023-03-13T01:57:19.688Z,-4.80
2023-03-13T02:00:12.816Z,-4.80
2023-03-13T02:02:43.154Z,-4.80
2023-03-13T02:07:47.863Z,-4.80
2023-03-13T02:10:16.543Z,-4.80
2023-03-13T02:12:43.747Z,-5.00
2023-03-13T02:15:19.193Z,-4.90
2023-03-13T02:17:48.512Z,-5.00
2023-03-13T02:20:16.857Z,-4.90
2023-03-13T02:23:02.675Z,-5.00
2023-03-13T02:25:38.605Z,-5.00
2023-03-13T02:28:28.577Z,-5.00
2023-03-13T02:30:58.627Z,-5.00
2023-03-13T02:33:32.564Z,-5.20
2023-03-13T02:36:01.406Z,-5.20
2023-03-13T02:38:31.524Z,-5.20
2023-03-13T02:41:02.320Z,-5.30
2023-03-13T02:43:34.954Z,-5.10
2023-03-13T02:46:07.662Z,-5.20
2023-03-13T02:48:41.106Z,-5.20
2023-03-13T02:51:32.041Z,-5.20
2023-03-13T02:54:03.128Z,-5.20
2023-03-13T02:56:33.595Z,-5.20
2023-03-13T02:59:00.598Z,-5.20
2023-03-13T03:01:27.449Z,-5.10
2023-03-13T03:03:54.420Z,-5.20
2023-03-13T03:06:21.444Z,-5.20
2023-03-13T03:08:48.345Z,-5.20
2023-03-13T03:11:15.182Z,-5.20
2023-03-13T03:13:42.510Z,-5.30
2023-03-13T03:16:11.806Z,-5.30
2023-03-13T03:18:39.131Z,-5.30
2023-03-13T03:21:06.681Z,-5.30
2023-03-13T03:23:34.496Z,-5.30
2023-03-13T03:26:02.258Z,-5.30
2023-03-13T03:28:29.188Z,-5.30
2023-03-13T03:30:56.292Z,-5.30
2023-03-13T03:33:24.408Z,-5.30
2023-03-13T03:35:51.555Z,-5.30
2023-03-13T03:38:18.446Z,-5.30
2023-03-13T03:40:45.383Z,-5.20
2023-03-13T03:43:12.231Z,-5.30
2023-03-13T03:45:39.351Z,-5.30
2023-03-13T03:48:06.486Z,-5.20
2023-03-13T03:50:33.425Z,-5.20
2023-03-13T03:53:00.267Z,-5.20
2023-03-13T03:55:27.236Z,-5.10
2023-03-13T03:57:54.079Z,-5.10
2023-03-13T04:00:21.185Z,-5.00
2023-03-13T04:02:48.439Z,-5.10
2023-03-13T04:05:15.379Z,-5.10
2023-03-13T04:07:42.229Z,-5.10
2023-03-13T04:10:09.845Z,-5.00
2023-03-13T04:12:36.762Z,-5.10
2023-03-13T04:15:04.438Z,-4.90
2023-03-13T04:17:31.377Z,-5.00
2023-03-13T04:19:58.256Z,-5.00
2023-03-13T04:22:25.732Z,-5.00
2023-03-13T04:24:53.143Z,-5.00
2023-03-13T04:27:20.079Z,-5.00
2023-03-13T04:29:47.047Z,-5.00
2023-03-13T04:32:14.157Z,-5.00
2023-03-13T04:34:41.009Z,-5.00
2023-03-13T04:37:07.970Z,-5.00
2023-03-13T04:39:34.847Z,-4.90
2023-03-13T04:42:01.749Z,-4.90
2023-03-13T04:44:28.626Z,-4.90
2023-03-13T04:46:55.465Z,-4.80
2023-03-13T04:49:22.437Z,-4.80
2023-03-13T04:51:49.265Z,-4.90
2023-03-13T04:54:16.481Z,-4.80
2023-03-13T04:56:44.395Z,-4.80
2023-03-13T04:59:12.722Z,-4.90
2023-03-13T05:01:40.427Z,-4.80
2023-03-13T05:04:08.030Z,-4.80
2023-03-13T05:06:34.898Z,-4.60
2023-03-13T05:09:02.125Z,-4.20
2023-03-13T05:11:29.417Z,-3.30
2023-03-13T05:13:56.399Z,-2.10
2023-03-13T05:16:23.311Z,-0.90
2023-03-13T05:18:50.154Z,-0.60
2023-03-13T05:21:17.613Z,-0.40
2023-03-13T05:23:44.508Z,-0.70
2023-03-13T05:26:11.392Z,-0.70
2023-03-13T05:28:38.196Z,-1.10
2023-03-13T05:31:05.200Z,-1.30
2023-03-13T05:33:32.139Z,-1.70
2023-03-13T05:35:59.022Z,-2.00
2023-03-13T05:38:26.055Z,-2.50
2023-03-13T05:40:52.965Z,-2.80
2023-03-13T05:43:19.837Z,-2.90
2023-03-13T05:45:46.694Z,-3.00
2023-03-13T05:48:13.564Z,-3.10
2023-03-13T05:50:40.455Z,-3.00
2023-03-13T05:53:07.285Z,-2.90
2023-03-13T05:55:34.122Z,-2.90
2023-03-13T05:58:01.006Z,-2.60
2023-03-13T06:00:28.037Z,-2.60
2023-03-13T06:02:54.944Z,-3.00
2023-03-13T06:05:21.870Z,-3.10
2023-03-13T06:07:50.362Z,-3.10
2023-03-13T06:10:17.502Z,-3.10
2023-03-13T06:12:44.430Z,-3.10
2023-03-13T06:15:12.311Z,-3.00
2023-03-13T06:17:39.399Z,-2.70
2023-03-13T06:20:06.791Z,-2.10
2023-03-13T06:22:33.605Z,-1.10
2023-03-13T06:25:00.385Z,-0.10
2023-03-13T06:27:27.081Z,0.00
2023-03-13T06:29:53.953Z,0.00
2023-03-13T06:32:20.881Z,0.50
2023-03-13T06:34:47.753Z,0.90
2023-03-13T06:37:14.999Z,1.30
2023-03-13T06:39:41.732Z,1.10
2023-03-13T06:42:08.422Z,1.20
2023-03-13T06:44:35.192Z,1.60
2023-03-13T06:47:01.947Z,1.70
2023-03-13T06:49:28.897Z,1.90
2023-03-13T06:51:57.358Z,2.70
2023-03-13T06:54:24.169Z,3.40
2023-03-13T06:56:50.937Z,4.10
2023-03-13T06:59:17.699Z,4.00
2023-03-13T07:01:44.461Z,3.70
2023-03-13T07:04:12.934Z,3.80
2023-03-13T07:06:40.011Z,4.40
2023-03-13T07:09:06.932Z,4.10
2023-03-13T07:11:33.897Z,4.80
2023-03-13T07:14:15.272Z,5.30
2023-03-13T07:16:44.071Z,5.70
2023-03-13T07:19:10.985Z,6.10
2023-03-13T07:21:38.182Z,6.10
2023-03-13T07:24:05.094Z,6.50
2023-03-13T07:26:32.059Z,6.50
2023-03-13T07:28:59.292Z,5.80
2023-03-13T07:31:26.323Z,4.80
2023-03-13T07:33:59.147Z,4.60
2023-03-13T07:36:26.060Z,5.20
2023-03-13T07:38:53.129Z,5.70
2023-03-13T07:41:20.364Z,6.00
2023-03-13T07:43:47.375Z,5.30
2023-03-13T07:46:15.217Z,4.70
2023-03-13T07:48:42.765Z,4.80
2023-03-13T07:51:17.713Z,5.30
2023-03-13T07:53:45.198Z,5.10
2023-03-13T07:56:12.662Z,5.00
2023-03-13T07:58:40.366Z,4.90
2023-03-13T08:01:17.837Z,5.60
2023-03-13T08:03:45.365Z,5.90
2023-03-13T08:06:13.629Z,5.50
2023-03-13T08:08:40.576Z,5.80
2023-03-13T08:11:13.255Z,5.50
2023-03-13T08:13:41.415Z,5.20
2023-03-13T08:16:12.578Z,4.60
2023-03-13T08:18:40.721Z,4.70
2023-03-13T08:21:08.532Z,4.40
2023-03-13T08:23:35.906Z,4.50
2023-03-13T08:26:06.150Z,4.40
2023-03-13T08:28:33.343Z,4.80
2023-03-13T08:31:06.147Z,4.50
2023-03-13T08:33:32.877Z,4.60
2023-03-13T08:36:00.735Z,4.60
2023-03-13T08:38:27.464Z,4.50
2023-03-13T08:40:57.787Z,4.50
2023-03-13T08:43:24.526Z,4.50
2023-03-13T08:45:55.025Z,4.30
2023-03-13T08:48:21.873Z,3.80
2023-03-13T08:50:48.613Z,4.00
2023-03-13T08:53:15.341Z,3.90
2023-03-13T08:55:42.045Z,4.40
2023-03-13T08:58:08.743Z,4.00
2023-03-13T09:00:35.470Z,5.50
2023-03-13T09:03:02.222Z,6.60
2023-03-13T09:05:29.025Z,7.30
2023-03-13T09:07:56.847Z,7.00
2023-03-13T09:10:24.040Z,6.80
2023-03-13T09:12:50.831Z,5.60
2023-03-13T09:15:20.412Z,5.50
2023-03-13T09:17:47.149Z,5.30
2023-03-13T09:20:13.874Z,5.30
2023-03-13T09:22:40.606Z,5.60
2023-03-13T09:25:07.656Z,5.50
2023-03-13T09:27:34.409Z,6.00
2023-03-13T09:30:01.142Z,6.70
2023-03-13T09:32:27.908Z,7.70
2023-03-13T09:34:54.696Z,7.90
2023-03-13T09:37:21.686Z,6.70
2023-03-13T09:39:48.862Z,5.80
2023-03-13T09:42:18.073Z,5.00
2023-03-13T09:45:04.582Z,4.60
2023-03-13T09:47:50.407Z,4.90
2023-03-13T09:50:20.147Z,4.80
2023-03-13T09:52:49.376Z,4.70
2023-03-13T09:55:20.693Z,5.00
2023-03-13T09:57:50.568Z,5.80
2023-03-13T10:00:17.612Z,6.00
2023-03-13T10:02:45.953Z,5.60
2023-03-13T10:05:17.826Z,4.90
2023-03-13T10:07:44.887Z,4.70
2023-03-13T10:10:14.153Z,4.50
2023-03-13T10:12:45.836Z,4.50
2023-03-13T10:15:28.517Z,4.40
2023-03-13T10:17:55.351Z,4.50
2023-03-13T10:20:29.823Z,5.40
2023-03-13T10:22:56.584Z,5.50
2023-03-13T10:25:29.656Z,5.40
2023-03-13T10:27:56.784Z,5.90
2023-03-13T10:30:25.237Z,5.60
2023-03-13T10:32:53.894Z,5.90
2023-03-13T10:35:21.962Z,5.30
2023-03-13T10:37:48.752Z,5.10
2023-03-13T10:40:23.399Z,5.00
2023-03-13T10:42:51.545Z,5.10
2023-03-13T10:45:19.527Z,4.70
2023-03-13T10:47:53.611Z,4.60
2023-03-13T10:50:21.832Z,4.40
2023-03-13T10:52:49.931Z,4.20
2023-03-13T10:55:23.087Z,4.10
2023-03-13T10:58:02.529Z,4.10
2023-03-13T11:00:36.649Z,4.40
2023-03-13T11:03:17.871Z,4.40
2023-03-13T11:05:53.931Z,4.70
2023-03-13T11:08:27.579Z,4.20
2023-03-13T11:10:56.930Z,4.60
2023-03-13T11:13:36.425Z,4.40
2023-03-13T11:16:20.849Z,4.70
2023-03-13T11:19:11.876Z,4.50
2023-03-13T11:21:45.318Z,4.20
2023-03-13T11:24:40.492Z,4.20
2023-03-13T11:27:27.577Z,4.20
2023-03-13T11:30:00.660Z,4.30
2023-03-13T11:32:36.565Z,3.80
2023-03-13T11:35:06.987Z,3.90
2023-03-13T11:37:36.550Z,3.80
2023-03-13T11:40:16.671Z,3.90
2023-03-13T11:43:24.067Z,3.50
2023-03-13T11:45:52.014Z,3.60
2023-03-13T11:48:18.916Z,3.90
2023-03-13T11:50:48.685Z,3.70
2023-03-13T11:53:29.879Z,4.10
2023-03-13T11:55:57.015Z,4.10
2023-03-13T11:58:27.809Z,4.10
2023-03-13T12:01:23.444Z,4.00
2023-03-13T12:03:59.556Z,3.80
2023-03-13T12:06:37.925Z,3.80
2023-03-13T12:09:12.092Z,3.90
2023-03-13T12:11:53.436Z,3.90
2023-03-13T12:14:30.408Z,3.80
2023-03-13T12:17:06.255Z,3.50
2023-03-13T12:19:36.156Z,3.50
2023-03-13T12:22:18.380Z,3.60
2023-03-13T12:24:51.543Z,3.60
2023-03-13T12:27:39.408Z,3.50
2023-03-13T12:30:15.122Z,3.30
2023-03-13T12:33:19.741Z,3.30
2023-03-13T12:35:53.392Z,3.50
2023-03-13T12:38:26.339Z,3.40
2023-03-13T12:41:02.019Z,3.30
2023-03-13T12:43:33.887Z,3.20
2023-03-13T12:46:08.897Z,3.40
2023-03-13T12:48:53.982Z,3.50
2023-03-13T12:51:35.245Z,3.00
2023-03-13T12:54:31.844Z,2.90
2023-03-13T12:57:37.420Z,2.90
2023-03-13T13:00:11.947Z,3.00
2023-03-13T13:02:39.060Z,2.80
2023-03-13T13:05:07.689Z,2.90
2023-03-13T13:07:38.148Z,2.60
2023-03-13T13:10:10.698Z,2.70
2023-03-13T13:12:41.487Z,2.40
2023-03-13T13:15:24.240Z,2.40
2023-03-13T13:17:55.040Z,2.30
2023-03-13T13:20:35.696Z,1.90
2023-03-13T13:23:42.040Z,1.80
2023-03-13T13:26:29.580Z,1.70
2023-03-13T13:29:01.342Z,1.30
2023-03-13T13:31:57.256Z,1.30
2023-03-13T13:34:36.012Z,1.10
2023-03-13T13:37:23.117Z,1.00
2023-03-13T13:39:52.803Z,0.80
2023-03-13T13:42:35.424Z,1.00
2023-03-13T13:45:21.622Z,0.90
2023-03-13T13:47:50.464Z,0.90
2023-03-13T13:50:23.533Z,0.90
2023-03-13T13:52:51.380Z,0.70
2023-03-13T13:55:42.279Z,0.70
2023-03-13T13:58:24.494Z,0.80
2023-03-13T14:00:56.020Z,0.60
2023-03-13T14:03:27.384Z,0.70
2023-03-13T14:05:56.048Z,0.50
2023-03-13T14:08:45.035Z,0.60
2023-03-13T14:11:14.740Z,0.50
2023-03-13T14:13:42.046Z,0.60
2023-03-13T14:16:36.972Z,0.50
2023-03-13T14:19:04.503Z,0.50
2023-03-13T14:21:33.107Z,0.60
2023-03-13T14:24:00.148Z,0.50
2023-03-13T14:26:29.284Z,0.50
2023-03-13T14:28:59.244Z,0.40
2023-03-13T14:31:39.633Z,0.40
2023-03-13T14:34:10.004Z,0.30
2023-03-13T14:36:50.416Z,0.40
2023-03-13T14:39:37.633Z,0.50
2023-03-13T14:42:09.786Z,0.20
2023-03-13T14:44:37.216Z,0.40
2023-03-13T14:47:30.774Z,0.50
2023-03-13T14:50:00.453Z,0.50
2023-03-13T14:52:29.765Z,0.30
2023-03-13T14:55:04.281Z,0.20
2023-03-13T14:57:33.112Z,0.40
2023-03-13T15:00:30.545Z,0.30
2023-03-13T15:03:20.260Z,0.40
2023-03-13T15:06:10.070Z,0.20
2023-03-13T15:08:40.172Z,0.40
2023-03-13T15:11:34.020Z,0.30
2023-03-13T15:14:01.584Z,0.40
2023-03-13T15:16:29.095Z,0.40
2023-03-13T15:18:56.323Z,0.30
2023-03-13T15:21:31.132Z,0.40
2023-03-13T15:24:11.302Z,0.50
2023-03-13T15:26:38.144Z,0.30
2023-03-13T15:29:05.069Z,0.60
2023-03-13T15:31:32.445Z,0.60
2023-03-13T15:34:01.096Z,0.40
2023-03-13T15:36:29.880Z,0.30
2023-03-13T15:38:56.893Z,0.40
2023-03-13T15:41:24.180Z,0.40
2023-03-13T15:43:52.669Z,0.40
2023-03-13T15:46:20.971Z,0.40
2023-03-13T15:48:48.227Z,0.50
2023-03-13T15:51:16.663Z,0.40
2023-03-13T15:53:46.193Z,0.50
2023-03-13T15:56:23.019Z,0.50
2023-03-13T15:58:51.216Z,0.40
2023-03-13T16:01:18.831Z,0.40
2023-03-13T16:03:45.825Z,0.40
2023-03-13T16:06:30.996Z,0.40
2023-03-13T16:09:02.069Z,0.50
2023-03-13T16:11:30.010Z,0.50
2023-03-13T16:13:59.620Z,0.50
2023-03-13T16:16:36.508Z,0.50
2023-03-13T16:19:04.349Z,0.60
2023-03-13T16:21:34.814Z,0.60
2023-03-13T16:24:02.169Z,0.60
2023-03-13T16:26:31.651Z,0.70
2023-03-13T16:28:59.205Z,0.50
2023-03-13T16:31:28.821Z,0.50
2023-03-13T16:33:57.082Z,0.60
2023-03-13T16:36:33.417Z,0.50
2023-03-13T16:39:02.255Z,0.70
2023-03-13T16:41:30.005Z,0.70
2023-03-13T16:43:57.374Z,0.60
2023-03-13T16:46:55.538Z,0.50
2023-03-13T16:49:26.231Z,0.50
2023-03-13T16:51:53.148Z,0.50
2023-03-13T16:54:20.019Z,0.50
2023-03-13T16:56:46.983Z,0.60
2023-03-13T16:59:18.241Z,0.40
2023-03-13T17:01:46.963Z,0.50
2023-03-13T17:04:14.032Z,0.30
2023-03-13T17:06:44.601Z,0.50
2023-03-13T17:09:16.128Z,0.40
2023-03-13T17:11:43.082Z,0.40
2023-03-13T17:14:10.316Z,0.40
2023-03-13T17:16:42.605Z,0.50
2023-03-13T17:19:17.099Z,0.50
2023-03-13T17:21:45.131Z,0.40
2023-03-13T17:24:12.002Z,0.50
2023-03-13T17:26:40.247Z,0.50
2023-03-13T17:29:08.599Z,0.50
2023-03-13T17:31:38.637Z,0.40
2023-03-13T17:34:07.723Z,0.40
2023-03-13T17:36:35.371Z,0.60
2023-03-13T17:39:05.257Z,0.50
2023-03-13T17:41:36.055Z,0.50
2023-03-13T17:44:05.862Z,0.60
2023-03-13T17:46:40.542Z,0.40
2023-03-13T17:49:10.149Z,0.60
2023-03-13T17:51:37.078Z,0.60
2023-03-13T17:54:04.152Z,0.30
2023-03-13T17:56:36.328Z,0.60
2023-03-13T17:59:05.051Z,0.60
2023-03-13T18:01:33.678Z,0.60
2023-03-13T18:04:01.483Z,0.50
2023-03-13T18:06:32.656Z,0.50
2023-03-13T18:09:02.878Z,0.60
2023-03-13T18:11:30.069Z,0.60
2023-03-13T18:13:57.241Z,0.60
2023-03-13T18:16:37.670Z,0.60
2023-03-13T18:19:17.870Z,0.70
2023-03-13T18:21:46.049Z,0.90
2023-03-13T18:24:13.805Z,0.90
2023-03-13T18:26:42.304Z,0.50
2023-03-13T18:29:26.211Z,0.90
2023-03-13T18:31:55.455Z,0.80
2023-03-13T18:34:23.634Z,0.90
2023-03-13T18:36:50.679Z,1.00
2023-03-13T18:39:18.778Z,1.00
2023-03-13T18:41:46.972Z,1.00
2023-03-13T18:44:21.142Z,1.00
2023-03-13T18:46:48.659Z,1.10
2023-03-13T18:49:20.273Z,1.00
2023-03-13T18:51:51.467Z,1.10
2023-03-13T18:54:18.405Z,1.20
2023-03-13T18:56:45.785Z,1.10
2023-03-13T18:59:14.420Z,1.20
2023-03-13T19:01:42.465Z,1.10
2023-03-13T19:04:09.473Z,1.50
2023-03-13T19:06:38.548Z,1.60
2023-03-13T19:09:41.645Z,1.60
2023-03-13T19:12:04.806Z,1.50
2023-03-13T19:14:31.850Z,1.70
2023-03-13T19:16:58.999Z,1.50
2023-03-13T19:19:26.840Z,1.80
